Time;durP1;ratioP1;P1;durP2;ratioP2;P2;SDS_P1;SDS_P2;PMS_P1;PMS_P2;Temp;Humidity;BMP_temperature;BMP_pressure;BME280_temperature;BME280_humidity;BME280_pressure;Samples;Min_cycle;Max_cycle;Signal;HPM_P1;HPM_P2
2022/06/27 07:27:36;;;;;;;4.85;2.92;;;;;;;27.23;51.96;100292.96;1625717;87;21169;-50
2022/06/27 07:30:10;;;;;;;7.33;2.72;;;;;;;27.39;50.41;100297.64;1690381;83;21071;-41
2022/06/27 07:32:42;;;;;;;7.62;3.62;;;;;;;27.48;49.25;100293.44;1693769;83;21058;-49
2022/06/27 07:35:11;;;;;;;2.90;2.40;;;;;;;27.52;49.03;100294.47;1721097;82;21005;-49
2022/06/27 07:37:48;;;;;;;3.37;2.62;;;;;;;27.59;49.16;100305.15;1697030;82;21478;-50
2022/06/27 07:40:18;;;;;;;3.27;2.20;;;;;;;27.65;49.41;100298.97;1659360;83;21442;-42
2022/06/27 07:42:46;;;;;;;4.55;2.47;;;;;;;27.66;48.88;100300.68;1680914;85;21115;-42
2022/06/27 07:45:14;;;;;;;2.77;2.40;;;;;;;27.67;48.70;100298.39;1698858;82;20973;-43
2022/06/27 07:55:08;;;;;;;3.92;2.15;;;;;;;27.86;48.37;100296.62;1800137;79;22506;-41
2022/06/27 07:57:35;;;;;;;3.95;2.65;;;;;;;27.92;47.85;100302.90;1734653;81;21083;-48
2022/06/27 08:00:05;;;;;;;2.42;2.27;;;;;;;28.03;48.13;100304.33;1719611;83;21515;-41
2022/06/27 08:02:34;;;;;;;5.22;2.58;;;;;;;28.13;48.42;100305.39;1728247;83;21576;-49
2022/06/27 08:05:01;;;;;;;5.10;3.00;;;;;;;28.24;48.30;100298.73;1730034;83;21040;-44
2022/06/27 08:07:29;;;;;;;6.30;2.52;;;;;;;28.32;47.31;100300.88;1734300;81;21556;-41
2022/06/27 08:09:56;;;;;;;5.62;2.77;;;;;;;28.39;45.20;100300.80;1713519;82;21408;-48
2022/06/27 08:12:24;;;;;;;6.22;2.50;;;;;;;28.47;45.14;100294.84;1736634;81;21116;-49
2022/06/27 08:14:51;;;;;;;2.75;2.55;;;;;;;28.52;45.51;100288.14;1727952;83;21034;-49
2022/06/27 08:17:18;;;;;;;3.37;2.70;;;;;;;28.56;46.19;100290.98;1704848;81;21067;-49
2022/06/27 08:19:46;;;;;;;5.03;2.15;;;;;;;28.58;45.77;100292.20;1719818;83;21092;-48
2022/06/27 08:22:14;;;;;;;4.12;2.33;;;;;;;28.58;45.42;100299.78;1746518;80;21131;-42
2022/06/27 08:24:42;;;;;;;4.30;2.72;;;;;;;28.59;44.87;100291.25;1739438;81;21068;-42
2022/06/27 08:27:09;;;;;;;4.40;2.55;;;;;;;28.57;45.52;100291.84;1744669;80;21020;-41
2022/06/27 08:29:37;;;;;;;5.97;2.20;;;;;;;28.50;45.70;100296.82;1714472;81;21059;-49
2022/06/27 08:32:05;;;;;;;11.35;2.37;;;;;;;28.45;45.46;100296.79;1685575;83;21104;-49
2022/06/27 08:34:33;;;;;;;2.77;2.58;;;;;;;28.43;45.20;100301.44;1667560;85;21083;-48
2022/06/27 08:37:00;;;;;;;3.15;2.45;;;;;;;28.38;45.67;100302.27;1675442;85;21097;-41
2022/06/27 08:39:28;;;;;;;4.08;2.22;;;;;;;28.31;45.67;100303.17;1685016;85;21037;-41
2022/06/27 08:41:55;;;;;;;3.77;2.27;;;;;;;28.28;43.88;100303.38;1684795;85;21520;-49
2022/06/27 08:44:23;;;;;;;6.45;2.40;;;;;;;28.31;43.10;100294.61;1685275;85;21057;-49
2022/06/27 08:46:51;;;;;;;8.65;2.20;;;;;;;28.42;43.13;100293.86;1684770;84;21083;-42
2022/06/27 08:49:17;;;;;;;7.05;2.17;;;;;;;28.57;42.61;100294.03;1685493;85;21104;-49
2022/06/27 08:51:44;;;;;;;2.50;2.30;;;;;;;28.71;42.85;100285.44;1685246;85;20997;-42
2022/06/27 08:54:11;;;;;;;4.97;2.45;;;;;;;28.84;41.93;100278.98;1676209;85;21010;-49
2022/06/27 08:56:39;;;;;;;4.90;1.98;;;;;;;28.99;41.45;100278.34;1667684;86;20994;-49
2022/06/27 08:59:06;;;;;;;6.72;2.30;;;;;;;29.10;41.09;100277.49;1661536;86;20998;-42
2022/06/27 09:01:32;;;;;;;3.35;2.22;;;;;;;29.21;41.22;100282.05;1717298;83;21022;-49
2022/06/27 09:04:02;;;;;;;2.52;1.95;;;;;;;29.28;41.27;100282.81;1717182;82;21045;-49
2022/06/27 09:06:37;;;;;;;9.85;2.70;;;;;;;29.39;41.01;100275.21;1716923;83;20989;-42
2022/06/27 09:09:08;;;;;;;2.15;2.00;;;;;;;29.46;41.14;100277.81;1695454;82;21024;-42
2022/06/27 09:11:39;;;;;;;6.33;2.80;;;;;;;29.51;40.62;100276.08;1697610;83;21014;-41
2022/06/27 09:14:06;;;;;;;5.50;2.80;;;;;;;29.48;40.91;100283.93;1706110;83;21017;-43
2022/06/27 09:16:33;;;;;;;4.17;2.20;;;;;;;29.40;40.40;100283.69;1702835;82;21429;-42
2022/06/27 09:19:00;;;;;;;2.92;2.30;;;;;;;29.27;40.33;100278.88;1708876;83;21048;-41
2022/06/27 09:21:28;;;;;;;5.50;2.37;;;;;;;29.16;40.61;100281.05;1701994;83;21005;-42
2022/06/27 09:23:58;;;;;;;2.85;2.27;;;;;;;29.05;40.75;100283.26;1707163;83;21036;-42
2022/06/27 09:26:30;;;;;;;4.65;2.52;;;;;;;28.89;40.99;100283.54;1698243;82;21535;-49
2022/06/27 09:29:06;;;;;;;2.25;1.92;;;;;;;28.78;41.28;100288.88;1713880;83;21090;-42
2022/06/27 09:31:39;;;;;;;5.87;2.75;;;;;;;28.73;41.08;100288.36;1717440;83;20978;-49
2022/06/27 09:34:10;;;;;;;5.05;2.45;;;;;;;28.73;40.44;100284.33;1717307;83;21568;-42
2022/06/27 09:36:39;;;;;;;3.52;2.05;;;;;;;28.78;40.29;100278.11;1717254;83;21501;-42
2022/06/27 09:39:11;;;;;;;16.00;2.85;;;;;;;28.85;40.22;100278.01;1717522;82;21025;-42
2022/06/27 09:41:36;;;;;;;3.42;2.25;;;;;;;28.97;40.51;100272.69;1717200;83;21025;-42
2022/06/27 09:44:10;;;;;;;2.37;2.10;;;;;;;29.14;40.90;100277.63;1716781;83;21069;-44
2022/06/27 09:46:36;;;;;;;6.97;2.37;;;;;;;29.33;40.32;100278.39;1717147;82;21026;-42
2022/06/27 09:49:03;;;;;;;4.08;2.50;;;;;;;29.46;39.90;100268.88;1716802;83;21450;-50
2022/06/27 09:51:30;;;;;;;4.15;2.15;;;;;;;29.54;39.52;100261.06;1717153;83;20997;-43
2022/06/27 09:54:00;;;;;;;11.65;2.60;;;;;;;29.64;39.93;100264.75;1719455;82;21095;-43
2022/06/27 09:56:26;;;;;;;6.33;2.40;;;;;;;29.75;38.69;100270.14;1728823;83;21043;-43
2022/06/27 09:58:54;;;;;;;2.27;2.10;;;;;;;29.79;38.07;100259.94;1701467;83;21690;-50
2022/06/27 10:01:20;;;;;;;4.97;2.05;;;;;;;29.77;36.94;100267.31;1747255;81;20980;-50
2022/06/27 10:03:47;;;;;;;5.03;2.45;;;;;;;29.76;37.29;100267.80;1746511;80;21068;-51
2022/06/27 10:06:15;;;;;;;4.62;2.12;;;;;;;29.75;37.88;100264.74;1722299;83;21583;-47
2022/06/27 10:08:49;;;;;;;3.02;2.30;;;;;;;29.79;38.17;100259.45;1689323;83;21123;-42
2022/06/27 10:11:16;;;;;;;2.40;2.20;;;;;;;29.85;37.89;100256.25;1729454;83;20984;-45
2022/06/27 10:13:43;;;;;;;3.67;2.55;;;;;;;29.91;38.20;100257.59;1729613;81;21059;-51
2022/06/27 10:16:13;;;;;;;4.25;2.58;;;;;;;29.94;37.36;100250.13;1720475;83;21514;-51
2022/06/27 10:19:03;;;;;;;7.35;2.85;;;;;;;29.93;38.11;100254.30;1718178;83;21457;-51
2022/06/27 10:21:42;;;;;;;4.25;2.02;;;;;;;29.82;36.25;100250.27;1728813;83;20989;-43
2022/06/27 10:24:26;;;;;;;4.10;2.27;;;;;;;29.68;37.10;100253.56;1727733;83;21448;-50
2022/06/27 10:26:55;;;;;;;4.17;2.45;;;;;;;29.63;36.85;100256.27;1722897;83;20954;-42
2022/06/27 10:29:34;;;;;;;10.38;2.67;;;;;;;29.60;36.55;100258.73;1729163;83;21048;-51
2022/06/27 10:32:01;;;;;;;2.30;2.10;;;;;;;29.58;37.12;100258.50;1728128;81;21061;-50
2022/06/27 10:34:50;;;;;;;3.80;2.35;;;;;;;29.55;36.71;100258.23;1677126;84;21110;-50
2022/06/27 10:37:25;;;;;;;2.22;1.87;;;;;;;29.59;37.15;100258.86;1663611;84;21063;-42
2022/06/27 10:40:17;;;;;;;4.05;2.10;;;;;;;29.66;37.27;100259.59;1670940;85;21584;-41
2022/06/27 10:42:49;;;;;;;2.60;2.40;;;;;;;29.73;37.11;100252.35;1612529;89;21163;-42
2022/06/27 10:45:23;;;;;;;;;;;;;;;29.84;37.89;100253.69;1638875;87;21075;-49
2022/06/27 10:47:55;;;;;;;8.23;2.67;;;;;;;29.93;37.11;100254.30;1605725;89;20439;-49
2022/06/27 10:50:24;;;;;;;7.22;2.08;;;;;;;29.98;36.61;100256.14;1638915;87;21056;-50
2022/06/27 10:52:52;;;;;;;8.58;2.12;;;;;;;30.08;36.78;100252.17;1639610;87;21053;-49
2022/06/27 10:55:31;;;;;;;3.47;2.10;;;;;;;30.12;37.02;100255.03;1583681;89;21068;-42
2022/06/27 10:57:58;;;;;;;2.92;2.52;;;;;;;30.20;36.95;100254.75;1616559;89;21123;-42
2022/06/27 11:00:43;;;;;;;3.08;2.00;;;;;;;30.28;37.01;100251.44;1616853;89;21135;-50
2022/06/27 11:03:22;;;;;;;5.40;2.15;;;;;;;30.37;36.63;100250.66;1616736;89;21820;-43
2022/06/27 11:05:59;;;;;;;2.72;1.98;;;;;;;30.39;36.65;100251.41;1597882;89;21596;-43
2022/06/27 11:08:26;;;;;;;2.37;2.10;;;;;;;30.38;36.58;100245.64;1616794;87;21089;-49
2022/06/27 11:10:53;;;;;;;5.00;2.30;;;;;;;30.32;36.65;100249.32;1616741;89;21100;-43
2022/06/27 11:13:40;;;;;;;3.55;2.72;;;;;;;30.32;37.15;100254.72;1616586;89;21096;-42
2022/06/27 11:16:11;;;;;;;2.37;2.17;;;;;;;30.38;36.98;100243.41;1617012;89;21076;-42
2022/06/27 11:18:54;;;;;;;10.88;2.50;;;;;;;30.53;36.82;100251.58;1616110;89;21077;-48
2022/06/27 11:21:27;;;;;;;6.15;2.30;;;;;;;30.58;37.23;100250.70;1667482;85;21053;-48
2022/06/27 11:24:08;;;;;;;5.78;2.70;;;;;;;30.52;37.42;100250.37;1659650;85;21577;-41
2022/06/27 11:26:38;;;;;;;3.33;2.10;;;;;;;30.33;37.97;100251.06;1682373;85;21058;-41
2022/06/27 11:32:07;;;;;;;5.20;2.40;;;;;;;30.22;37.13;100247.90;1682287;85;20990;-41
2022/06/27 11:34:37;;;;;;;5.08;2.47;;;;;;;30.17;37.63;100244.23;1689904;85;21032;-42
2022/06/27 11:37:12;;;;;;;6.03;2.47;;;;;;;30.13;37.71;100246.80;1690429;85;21064;-49
2022/06/27 11:39:39;;;;;;;2.50;2.08;;;;;;;30.03;36.92;100240.91;1690267;85;21013;-49
2022/06/27 11:42:10;;;;;;;4.87;2.20;;;;;;;29.86;37.05;100243.63;1689843;85;21060;-41
2022/06/27 11:44:41;;;;;;;3.47;2.75;;;;;;;29.69;36.92;100246.38;1689945;85;21029;-48
2022/06/27 11:47:08;;;;;;;3.60;2.40;;;;;;;29.60;36.87;100247.95;1685628;85;21627;-42
2022/06/27 11:49:39;;;;;;;5.03;2.30;;;;;;;29.54;37.32;100249.79;1689472;85;21004;-49
2022/06/27 11:52:09;;;;;;;3.47;2.27;;;;;;;29.51;36.92;100247.78;1689993;85;21032;-42
2022/06/27 11:54:43;;;;;;;7.15;2.02;;;;;;;29.51;37.07;100247.29;1683767;85;21097;-48
2022/06/27 11:57:25;;;;;;;4.58;2.10;;;;;;;29.52;36.04;100242.33;1702503;83;21615;-48
2022/06/27 11:59:56;;;;;;;2.45;2.10;;;;;;;29.53;35.70;100248.58;1711789;83;21037;-48
2022/06/27 12:02:31;;;;;;;5.92;2.52;;;;;;;29.53;36.34;100246.73;1713536;83;21140;-42
2022/06/27 12:05:10;;;;;;;8.53;2.35;;;;;;;29.52;36.82;100245.02;1695828;83;21097;-49
2022/06/27 12:08:01;;;;;;;3.75;2.33;;;;;;;29.50;36.71;100244.73;1668729;84;21124;-42
2022/06/27 12:13:40;;;;;;;3.77;2.40;;;;;;;29.42;36.62;100254.28;1700490;83;21057;-49
